< < Back
Terminal Aerodrome Forecast


Current Version              Previous Versions:   1  2  3  4  5  6  7  8  9  

Terminal Aerodrome Forecast

220
FTUS44 KBMX 270759 AAA
TAFBHM
TAF AMD
KBHM 270759Z 2708/2806 34012G20KT P6SM VCSH SCT008 OVC012
      TEMPO 2708/2710 BKN008
     FM271100 34010KT P6SM OVC020
     FM271600 32009KT P6SM SCT030=

Latest METAR

212
SAUS70 KWBC 271200 RRE
MTRBHM
METAR KBHM 271153Z 33009KT 10SM OVC012 07/04 A2995 RMK AO2 SLP139 60001
70013 T00670044 10089 20067 53015


USA.gov is the U.S. government's official web portal to all federal, state and local government web resources and services.